createdAt,value
2017-12-08T00:00:38.254Z,997.86
2017-12-08T00:01:18.809Z,997.87
2017-12-08T00:01:59.428Z,997.8
2017-12-08T00:02:40.018Z,997.83
2017-12-08T00:03:20.666Z,997.84
2017-12-08T00:04:01.233Z,997.85
2017-12-08T00:04:41.847Z,997.89
2017-12-08T00:05:22.426Z,997.88
2017-12-08T00:06:03.006Z,997.86
2017-12-08T00:06:43.652Z,997.9
2017-12-08T00:07:24.234Z,997.89
2017-12-08T00:08:04.813Z,997.82
2017-12-08T00:08:45.425Z,997.94
2017-12-08T00:09:26.020Z,997.85
2017-12-08T00:10:06.640Z,997.91
2017-12-08T00:10:47.251Z,997.87
2017-12-08T00:11:27.840Z,997.87
2017-12-08T00:12:08.421Z,997.86
2017-12-08T00:12:49.001Z,997.85
2017-12-08T00:13:29.584Z,997.79
2017-12-08T00:14:10.201Z,997.85
2017-12-08T00:14:50.809Z,997.84
2017-12-08T00:15:31.432Z,997.84
2017-12-08T00:16:12.069Z,997.84
2017-12-08T00:16:52.671Z,997.89
2017-12-08T00:17:33.314Z,997.85
2017-12-08T00:18:13.900Z,997.85
2017-12-08T00:18:54.491Z,997.82
2017-12-08T00:19:35.071Z,997.84
2017-12-08T00:20:15.669Z,997.85
2017-12-08T00:20:56.246Z,997.83
2017-12-08T00:21:36.835Z,997.8
2017-12-08T00:22:17.432Z,997.82
2017-12-08T00:22:58.027Z,997.83
2017-12-08T00:23:38.654Z,997.82
2017-12-08T00:24:19.225Z,997.79
2017-12-08T00:24:59.851Z,997.79
2017-12-08T00:25:40.460Z,997.83
2017-12-08T00:26:21.034Z,997.84
2017-12-08T00:27:01.659Z,997.84
2017-12-08T00:27:42.269Z,997.78
2017-12-08T00:28:22.883Z,997.79
2017-12-08T00:29:03.562Z,997.79
2017-12-08T00:29:44.133Z,997.77
2017-12-08T00:30:24.736Z,997.76
2017-12-08T00:31:05.326Z,997.75
2017-12-08T00:31:45.907Z,997.74
2017-12-08T00:32:26.531Z,997.8
2017-12-08T00:33:07.106Z,997.75
2017-12-08T00:33:47.875Z,997.79
2017-12-08T00:34:28.567Z,997.73
2017-12-08T00:35:09.193Z,997.76
2017-12-08T00:35:49.827Z,997.7
2017-12-08T00:36:30.432Z,997.73
2017-12-08T00:37:11.009Z,997.69
2017-12-08T00:37:51.584Z,997.65
2017-12-08T00:38:32.187Z,997.61
2017-12-08T00:39:12.792Z,997.62
2017-12-08T00:39:53.409Z,997.58
2017-12-08T00:40:33.990Z,997.57
2017-12-08T00:41:14.598Z,997.57
2017-12-08T00:41:55.159Z,997.55
2017-12-08T00:42:35.782Z,997.56
2017-12-08T00:43:16.345Z,997.55
2017-12-08T00:43:56.913Z,997.58
2017-12-08T00:44:37.484Z,997.54
2017-12-08T00:45:18.099Z,997.53
2017-12-08T00:45:58.685Z,997.59
2017-12-08T00:46:39.276Z,997.6
2017-12-08T00:47:19.889Z,997.56
2017-12-08T00:48:00.471Z,997.56
2017-12-08T00:48:41.113Z,997.57
2017-12-08T00:49:21.642Z,997.58
2017-12-08T00:50:02.239Z,997.61
2017-12-08T00:50:42.807Z,997.53
2017-12-08T00:51:23.398Z,997.54
2017-12-08T00:52:04.006Z,997.57
2017-12-08T00:52:44.580Z,997.57
2017-12-08T00:53:25.163Z,997.54
2017-12-08T00:54:05.765Z,997.54
2017-12-08T00:54:46.358Z,997.5
2017-12-08T00:55:26.925Z,997.52
2017-12-08T00:56:07.504Z,997.47
2017-12-08T00:56:48.174Z,997.48
2017-12-08T00:57:28.736Z,997.45
2017-12-08T00:58:09.355Z,997.47
2017-12-08T00:58:49.929Z,997.46
2017-12-08T00:59:30.509Z,997.45
2017-12-08T01:00:11.076Z,997.48
2017-12-08T01:00:51.649Z,997.45
2017-12-08T01:01:32.244Z,997.48
2017-12-08T01:02:12.811Z,997.5
2017-12-08T01:02:53.382Z,997.46
2017-12-08T01:03:33.949Z,997.43
2017-12-08T01:04:14.553Z,997.46
2017-12-08T01:04:55.117Z,997.46
2017-12-08T01:05:35.681Z,997.49
2017-12-08T01:06:16.275Z,997.45
2017-12-08T01:06:56.829Z,997.51
2017-12-08T01:07:37.409Z,997.48
2017-12-08T01:08:17.972Z,997.41
2017-12-08T01:08:58.552Z,997.43
2017-12-08T01:09:39.141Z,997.4
2017-12-08T01:10:19.736Z,997.39
2017-12-08T01:11:00.300Z,997.45
2017-12-08T01:11:40.877Z,997.45
2017-12-08T01:12:21.470Z,997.44
2017-12-08T01:13:02.082Z,997.42
2017-12-08T01:13:42.686Z,997.45
2017-12-08T01:14:23.291Z,997.46
2017-12-08T01:15:03.855Z,997.42
2017-12-08T01:15:44.428Z,997.45
2017-12-08T01:16:24.991Z,997.48
2017-12-08T01:17:06.273Z,997.45
2017-12-08T01:17:46.828Z,997.47
2017-12-08T01:18:27.426Z,997.46
2017-12-08T01:19:07.990Z,997.46
2017-12-08T01:19:48.585Z,997.47
2017-12-08T01:20:29.172Z,997.43
2017-12-08T01:21:09.751Z,997.45
2017-12-08T01:21:50.326Z,997.44
2017-12-08T01:22:30.924Z,997.46
2017-12-08T01:23:11.494Z,997.46
2017-12-08T01:23:52.131Z,997.42
2017-12-08T01:24:32.680Z,997.43
2017-12-08T01:25:13.270Z,997.4
2017-12-08T01:25:53.836Z,997.39
2017-12-08T01:26:34.422Z,997.46
2017-12-08T01:27:14.988Z,997.47
2017-12-08T01:27:55.576Z,997.47
2017-12-08T01:28:36.155Z,997.47
2017-12-08T01:29:16.735Z,997.51
2017-12-08T01:29:57.312Z,997.54
2017-12-08T01:30:37.901Z,997.5
2017-12-08T01:31:18.486Z,997.52
2017-12-08T01:31:59.096Z,997.53
2017-12-08T01:32:39.688Z,997.51
2017-12-08T01:33:20.278Z,997.49
2017-12-08T01:34:00.845Z,997.51
2017-12-08T01:34:41.419Z,997.5
2017-12-08T01:35:22.000Z,997.45
2017-12-08T01:36:02.589Z,997.42
2017-12-08T01:36:43.220Z,997.43
2017-12-08T01:37:23.808Z,997.44
2017-12-08T01:38:04.409Z,997.45
2017-12-08T01:38:45.015Z,997.4
2017-12-08T01:39:25.612Z,997.43
2017-12-08T01:40:06.207Z,997.39
2017-12-08T01:40:46.770Z,997.39
2017-12-08T01:41:27.369Z,997.36
2017-12-08T01:42:07.952Z,997.39
2017-12-08T01:42:48.611Z,997.42
2017-12-08T01:43:29.265Z,997.43
2017-12-08T01:44:09.779Z,997.4
2017-12-08T01:44:50.379Z,997.38
2017-12-08T01:45:30.950Z,997.42
2017-12-08T01:46:11.528Z,997.39
2017-12-08T01:46:52.109Z,997.3
2017-12-08T01:47:32.753Z,997.33
2017-12-08T01:48:13.377Z,997.27
2017-12-08T01:48:53.973Z,997.29
2017-12-08T01:49:34.553Z,997.32
2017-12-08T01:50:15.145Z,997.25
2017-12-08T01:50:55.732Z,997.36
2017-12-08T01:51:36.325Z,997.3
2017-12-08T01:52:16.933Z,997.25
2017-12-08T01:52:57.496Z,997.28
2017-12-08T01:53:38.125Z,997.27
2017-12-08T01:54:18.697Z,997.29
2017-12-08T01:54:59.285Z,997.29
2017-12-08T01:55:39.887Z,997.23
2017-12-08T01:56:20.456Z,997.2
2017-12-08T01:57:01.040Z,997.22
2017-12-08T01:57:41.648Z,997.2
2017-12-08T01:58:22.249Z,997.2
2017-12-08T01:59:02.807Z,997.22
2017-12-08T01:59:43.433Z,997.2
2017-12-08T02:00:24.016Z,997.19
2017-12-08T02:01:04.581Z,997.22
2017-12-08T02:01:45.159Z,997.14
2017-12-08T02:02:25.749Z,997.16
2017-12-08T02:03:06.307Z,997.15
2017-12-08T02:03:46.877Z,997.18
2017-12-08T02:04:27.443Z,997.13
2017-12-08T02:05:08.018Z,997.12
2017-12-08T02:05:48.609Z,997.14
2017-12-08T02:06:29.187Z,997.13
2017-12-08T02:07:09.774Z,997.15
2017-12-08T02:07:50.362Z,997.21
2017-12-08T02:08:30.972Z,997.26
2017-12-08T02:09:11.567Z,997.24
2017-12-08T02:09:52.174Z,997.23
2017-12-08T02:10:32.741Z,997.22
2017-12-08T02:11:13.295Z,997.23
2017-12-08T02:11:53.868Z,997.22
2017-12-08T02:12:34.440Z,997.2
2017-12-08T02:13:15.020Z,997.18
2017-12-08T02:13:55.631Z,997.23
2017-12-08T02:14:36.201Z,997.26
2017-12-08T02:15:16.824Z,997.25
2017-12-08T02:15:57.381Z,997.28
2017-12-08T02:16:37.964Z,997.24
2017-12-08T02:17:18.549Z,997.28
2017-12-08T02:17:59.097Z,997.25
2017-12-08T02:18:39.679Z,997.24
2017-12-08T02:19:20.249Z,997.31
2017-12-08T02:20:00.815Z,997.32
2017-12-08T02:20:41.403Z,997.35
2017-12-08T02:21:21.990Z,997.29
2017-12-08T02:22:02.568Z,997.31
2017-12-08T02:22:43.161Z,997.29
2017-12-08T02:23:23.755Z,997.28
2017-12-08T02:24:04.326Z,997.29
2017-12-08T02:24:44.948Z,997.28
2017-12-08T02:25:25.539Z,997.28
2017-12-08T02:26:06.097Z,997.26
2017-12-08T02:26:46.678Z,997.32
2017-12-08T02:27:27.244Z,997.29
2017-12-08T02:28:07.821Z,997.29
2017-12-08T02:28:48.412Z,997.24
2017-12-08T02:29:28.985Z,997.24
2017-12-08T02:30:09.564Z,997.25
2017-12-08T02:30:50.141Z,997.21
2017-12-08T02:31:30.713Z,997.25
2017-12-08T02:32:11.278Z,997.3
2017-12-08T02:32:51.858Z,997.27
2017-12-08T02:33:32.438Z,997.29
2017-12-08T02:34:13.031Z,997.31
2017-12-08T02:34:53.610Z,997.31
2017-12-08T02:35:34.184Z,997.39
2017-12-08T02:36:14.760Z,997.35
2017-12-08T02:36:55.315Z,997.39
2017-12-08T02:37:35.912Z,997.34
2017-12-08T02:38:16.502Z,997.39
2017-12-08T02:38:57.082Z,997.36
2017-12-08T02:39:37.639Z,997.39
2017-12-08T02:40:18.217Z,997.37
2017-12-08T02:40:58.795Z,997.33
2017-12-08T02:41:39.394Z,997.29
2017-12-08T02:42:19.976Z,997.29
2017-12-08T02:43:00.576Z,997.29
2017-12-08T02:43:41.162Z,997.32
2017-12-08T02:44:21.740Z,997.29
2017-12-08T02:45:02.303Z,997.29
2017-12-08T02:45:43.048Z,997.27
2017-12-08T02:46:23.610Z,997.26
2017-12-08T02:47:04.210Z,997.27
2017-12-08T02:47:44.796Z,997.24
2017-12-08T02:48:25.370Z,997.29
2017-12-08T02:49:05.933Z,997.28
2017-12-08T02:49:46.505Z,997.27
2017-12-08T02:50:27.088Z,997.29
2017-12-08T02:51:07.654Z,997.25
2017-12-08T02:51:48.236Z,997.24
2017-12-08T02:52:28.799Z,997.2
2017-12-08T02:53:09.373Z,997.19
2017-12-08T02:53:49.957Z,997.11
2017-12-08T02:54:30.571Z,997.09
2017-12-08T02:55:11.146Z,997.14
2017-12-08T02:55:51.714Z,997.15
2017-12-08T02:56:32.295Z,997.11
2017-12-08T02:57:12.870Z,997.1
2017-12-08T02:57:53.468Z,997.12
2017-12-08T02:58:34.039Z,997.06
2017-12-08T02:59:14.673Z,997.13
2017-12-08T02:59:55.174Z,997.1
2017-12-08T03:00:35.767Z,997.07
2017-12-08T03:01:16.322Z,997.05
2017-12-08T03:01:56.901Z,997.06
2017-12-08T03:02:37.475Z,996.97
2017-12-08T03:03:18.035Z,996.98
2017-12-08T03:03:58.607Z,996.97
2017-12-08T03:04:39.216Z,997.05
2017-12-08T03:05:19.915Z,997.06
2017-12-08T03:06:00.490Z,997.04
2017-12-08T03:06:41.062Z,997.03
2017-12-08T03:07:21.630Z,997.06
2017-12-08T03:08:02.205Z,997.06
2017-12-08T03:08:42.760Z,997.03
2017-12-08T03:09:23.329Z,997.02
2017-12-08T03:10:03.897Z,997
2017-12-08T03:10:44.472Z,997.01
2017-12-08T03:11:25.030Z,997.01
2017-12-08T03:12:05.652Z,996.99
2017-12-08T03:12:46.218Z,996.96
2017-12-08T03:13:26.792Z,996.96
2017-12-08T03:14:07.359Z,997
2017-12-08T03:14:47.927Z,997.02
2017-12-08T03:15:28.490Z,997.06
2017-12-08T03:16:09.059Z,997.08
2017-12-08T03:16:49.666Z,997.11
2017-12-08T03:17:30.279Z,997.06
2017-12-08T03:18:10.853Z,997.12
2017-12-08T03:18:51.426Z,997.12
2017-12-08T03:19:32.018Z,997.09
2017-12-08T03:20:12.588Z,997.11
2017-12-08T03:20:53.153Z,997.08
2017-12-08T03:21:33.730Z,997.12
2017-12-08T03:22:14.304Z,997.02
2017-12-08T03:22:54.884Z,997.12
2017-12-08T03:23:35.484Z,997.03
2017-12-08T03:24:16.051Z,997.09
2017-12-08T03:24:56.636Z,997.12
2017-12-08T03:25:37.277Z,997.13
2017-12-08T03:26:17.819Z,997.12
2017-12-08T03:26:58.399Z,997.13
2017-12-08T03:27:39.008Z,997.08
2017-12-08T03:28:19.582Z,997.12
2017-12-08T03:29:00.160Z,997.11
2017-12-08T03:29:40.773Z,997.05
2017-12-08T03:30:21.365Z,997.02
2017-12-08T03:31:01.950Z,996.98
2017-12-08T03:31:42.533Z,997.04
2017-12-08T03:32:23.097Z,997.03
2017-12-08T03:33:03.663Z,996.99
2017-12-08T03:33:44.256Z,996.96
2017-12-08T03:34:24.841Z,996.93
2017-12-08T03:35:05.411Z,996.97
2017-12-08T03:35:45.993Z,997.02
2017-12-08T03:36:26.579Z,997
2017-12-08T03:37:07.169Z,996.96
2017-12-08T03:37:47.744Z,996.94
2017-12-08T03:38:28.329Z,996.93
2017-12-08T03:39:08.908Z,996.88
2017-12-08T03:39:49.485Z,996.89
2017-12-08T03:40:30.044Z,996.94
2017-12-08T03:41:10.625Z,996.9
2017-12-08T03:41:51.205Z,996.87
2017-12-08T03:42:31.775Z,996.89
2017-12-08T03:43:12.346Z,996.93
2017-12-08T03:43:52.922Z,997
2017-12-08T03:44:33.523Z,997.04
2017-12-08T03:45:14.097Z,997.05
2017-12-08T03:45:54.671Z,997.04
2017-12-08T03:46:35.254Z,997.08
2017-12-08T03:47:15.841Z,996.98
2017-12-08T03:47:56.443Z,996.93
2017-12-08T03:48:37.082Z,996.93
2017-12-08T03:49:17.654Z,996.94
2017-12-08T03:49:58.241Z,997.01
2017-12-08T03:50:38.806Z,997.03
2017-12-08T03:51:19.406Z,997.08
2017-12-08T03:51:59.960Z,997.09
2017-12-08T03:52:40.523Z,997.09
2017-12-08T03:53:21.106Z,997.07
2017-12-08T03:54:01.684Z,997.04
2017-12-08T03:54:42.261Z,997.1
2017-12-08T03:55:22.808Z,997.12
2017-12-08T03:56:03.371Z,997.11
2017-12-08T03:56:43.944Z,997.12
2017-12-08T03:57:24.508Z,997.12
2017-12-08T03:58:05.083Z,997.09
2017-12-08T03:58:45.661Z,997.05
2017-12-08T03:59:26.225Z,997.11
2017-12-08T04:00:06.835Z,997.14
2017-12-08T04:00:47.412Z,997.15
2017-12-08T04:01:27.995Z,997.2
2017-12-08T04:02:08.601Z,997.11
2017-12-08T04:02:49.165Z,997.1
2017-12-08T04:03:29.751Z,997.09
2017-12-08T04:04:10.333Z,997.03
2017-12-08T04:04:50.918Z,997.06
2017-12-08T04:05:31.492Z,997.02
2017-12-08T04:06:12.070Z,997.01
2017-12-08T04:06:52.643Z,997.04
2017-12-08T04:07:33.216Z,997.08
2017-12-08T04:08:13.795Z,997.04
2017-12-08T04:08:54.372Z,997.05
2017-12-08T04:09:34.958Z,997
2017-12-08T04:10:15.567Z,996.99
2017-12-08T04:10:56.106Z,997
2017-12-08T04:11:36.693Z,996.99
2017-12-08T04:12:17.259Z,997.02
2017-12-08T04:12:57.861Z,997.03
2017-12-08T04:13:38.429Z,997.03
2017-12-08T04:14:18.997Z,997.06
2017-12-08T04:14:59.603Z,997.1
2017-12-08T04:15:40.220Z,997.07
2017-12-08T04:16:20.891Z,997.06
2017-12-08T04:17:01.465Z,997.11
2017-12-08T04:17:42.061Z,997.11
2017-12-08T04:18:22.667Z,997.07
2017-12-08T04:19:03.258Z,997.12
2017-12-08T04:19:43.839Z,997.14
2017-12-08T04:20:24.406Z,997.19
2017-12-08T04:21:04.984Z,997.21
2017-12-08T04:21:45.537Z,997.21
2017-12-08T04:22:26.115Z,997.18
2017-12-08T04:23:06.688Z,997.18
2017-12-08T04:23:47.264Z,997.16
2017-12-08T04:24:27.819Z,997.16
2017-12-08T04:25:08.418Z,997.19
2017-12-08T04:25:48.986Z,997.22
2017-12-08T04:26:29.560Z,997.25
2017-12-08T04:27:10.129Z,997.18
2017-12-08T04:27:50.725Z,997.24
2017-12-08T04:28:31.295Z,997.22
2017-12-08T04:29:11.868Z,997.23
2017-12-08T04:29:52.456Z,997.31
2017-12-08T04:30:33.018Z,997.31
2017-12-08T04:31:13.623Z,997.33
2017-12-08T04:31:54.183Z,997.29
2017-12-08T04:32:34.773Z,997.31
2017-12-08T04:33:15.339Z,997.31
2017-12-08T04:33:55.917Z,997.37
2017-12-08T04:34:36.527Z,997.33
2017-12-08T04:35:17.088Z,997.32
2017-12-08T04:35:57.654Z,997.33
2017-12-08T04:36:38.229Z,997.32
2017-12-08T04:37:18.804Z,997.29
2017-12-08T04:37:59.389Z,997.32
2017-12-08T04:38:39.966Z,997.33
2017-12-08T04:39:20.544Z,997.31
2017-12-08T04:40:01.101Z,997.28
2017-12-08T04:40:41.685Z,997.31
2017-12-08T04:41:22.308Z,997.32
2017-12-08T04:42:02.878Z,997.33
2017-12-08T04:42:43.458Z,997.29
2017-12-08T04:43:24.085Z,997.24
2017-12-08T04:44:04.645Z,997.28
2017-12-08T04:44:45.229Z,997.3
2017-12-08T04:45:25.827Z,997.32
2017-12-08T04:46:06.404Z,997.34
2017-12-08T04:46:46.987Z,997.32
2017-12-08T04:47:27.544Z,997.33
2017-12-08T04:48:08.125Z,997.33
2017-12-08T04:48:48.742Z,997.31
2017-12-08T04:49:29.324Z,997.29
2017-12-08T04:50:09.918Z,997.37
2017-12-08T04:50:50.516Z,997.31
2017-12-08T04:51:31.080Z,997.31
2017-12-08T04:52:11.685Z,997.35
2017-12-08T04:52:52.266Z,997.31
2017-12-08T04:53:32.918Z,997.31
2017-12-08T04:54:13.491Z,997.3
2017-12-08T04:54:54.080Z,997.34
2017-12-08T04:55:34.668Z,997.35
2017-12-08T04:56:15.223Z,997.31
2017-12-08T04:56:55.782Z,997.32
2017-12-08T04:57:36.360Z,997.31
2017-12-08T04:58:16.973Z,997.34
2017-12-08T04:58:57.548Z,997.35
2017-12-08T04:59:38.144Z,997.39
2017-12-08T05:00:18.724Z,997.42
2017-12-08T05:00:59.289Z,997.4
2017-12-08T05:01:39.871Z,997.42
2017-12-08T05:02:20.439Z,997.41
2017-12-08T05:03:01.041Z,997.4
2017-12-08T05:03:41.615Z,997.41
2017-12-08T05:04:22.192Z,997.42
2017-12-08T05:05:02.814Z,997.4
2017-12-08T05:05:43.392Z,997.38
2017-12-08T05:06:23.957Z,997.35
2017-12-08T05:07:04.542Z,997.34
2017-12-08T05:07:45.124Z,997.29
2017-12-08T05:08:25.708Z,997.33
2017-12-08T05:09:06.308Z,997.33
2017-12-08T05:09:46.907Z,997.29
2017-12-08T05:10:27.505Z,997.34
2017-12-08T05:11:08.067Z,997.38
2017-12-08T05:11:48.690Z,997.37
2017-12-08T05:12:29.278Z,997.44
2017-12-08T05:13:09.850Z,997.45
2017-12-08T05:13:50.417Z,997.42
2017-12-08T05:14:31.010Z,997.45
2017-12-08T05:15:11.568Z,997.4
2017-12-08T05:15:52.159Z,997.41
2017-12-08T05:16:32.752Z,997.39
2017-12-08T05:17:13.338Z,997.4
2017-12-08T05:17:54.008Z,997.37
2017-12-08T05:18:34.531Z,997.42
2017-12-08T05:19:15.169Z,997.4
2017-12-08T05:19:55.760Z,997.42
2017-12-08T05:20:36.327Z,997.42
2017-12-08T05:21:16.915Z,997.42
2017-12-08T05:21:57.483Z,997.41
2017-12-08T05:22:38.051Z,997.39
2017-12-08T05:23:18.634Z,997.41
2017-12-08T05:23:59.204Z,997.4
2017-12-08T05:24:39.804Z,997.41
2017-12-08T05:25:20.380Z,997.39
2017-12-08T05:26:00.944Z,997.4
2017-12-08T05:26:41.507Z,997.37
2017-12-08T05:27:22.092Z,997.38
2017-12-08T05:28:02.678Z,997.36
2017-12-08T05:28:43.262Z,997.39
2017-12-08T05:29:23.842Z,997.37
2017-12-08T05:30:04.441Z,997.39
2017-12-08T05:30:45.012Z,997.4
2017-12-08T05:31:25.597Z,997.4
2017-12-08T05:32:06.203Z,997.44
2017-12-08T05:32:46.767Z,997.44
2017-12-08T05:33:27.356Z,997.5
2017-12-08T05:34:07.931Z,997.46
2017-12-08T05:34:48.507Z,997.44
2017-12-08T05:35:29.082Z,997.49
2017-12-08T05:36:09.657Z,997.49
2017-12-08T05:36:50.225Z,997.44
2017-12-08T05:37:30.812Z,997.38
2017-12-08T05:38:11.399Z,997.36
2017-12-08T05:38:51.980Z,997.39
2017-12-08T05:39:32.583Z,997.41
2017-12-08T05:40:13.165Z,997.39
2017-12-08T05:40:53.717Z,997.44
2017-12-08T05:41:34.269Z,997.46
2017-12-08T05:42:14.839Z,997.45
2017-12-08T05:42:55.425Z,997.46
2017-12-08T05:43:35.988Z,997.45
2017-12-08T05:44:16.588Z,997.45
2017-12-08T05:44:57.157Z,997.44
2017-12-08T05:45:38.740Z,997.39
2017-12-08T05:46:19.326Z,997.45
2017-12-08T05:46:59.987Z,997.42
2017-12-08T05:47:40.532Z,997.4
2017-12-08T05:48:21.097Z,997.46
2017-12-08T05:49:01.671Z,997.39
2017-12-08T05:49:42.553Z,997.39
2017-12-08T05:50:23.261Z,997.44
2017-12-08T05:51:03.823Z,997.43
2017-12-08T05:51:44.517Z,997.43
2017-12-08T05:52:25.103Z,997.43
2017-12-08T05:53:05.693Z,997.45
2017-12-08T05:53:46.291Z,997.44
2017-12-08T05:54:26.901Z,997.44
2017-12-08T05:55:07.474Z,997.47
2017-12-08T05:55:48.367Z,997.5
2017-12-08T05:56:29.172Z,997.4
2017-12-08T05:57:09.732Z,997.45
2017-12-08T05:57:50.311Z,997.39
2017-12-08T05:58:30.904Z,997.46
2017-12-08T05:59:11.553Z,997.49
2017-12-08T05:59:52.110Z,997.46
2017-12-08T06:00:32.676Z,997.48
2017-12-08T06:01:13.237Z,997.49
2017-12-08T06:01:53.838Z,997.46
2017-12-08T06:02:34.412Z,997.54
2017-12-08T06:03:14.980Z,997.57
2017-12-08T06:03:55.798Z,997.55
2017-12-08T06:04:36.755Z,997.55
2017-12-08T06:05:17.444Z,997.53
2017-12-08T06:05:58.224Z,997.5
2017-12-08T06:06:39.148Z,997.48
2017-12-08T06:07:20.026Z,997.51
2017-12-08T06:08:01.023Z,997.54
2017-12-08T06:08:41.962Z,997.52
2017-12-08T06:09:26.305Z,997.54
2017-12-08T06:10:07.255Z,997.56
2017-12-08T06:10:48.197Z,997.56
2017-12-08T06:11:29.077Z,997.55
2017-12-08T06:12:09.920Z,997.56
2017-12-08T06:12:50.787Z,997.56
2017-12-08T06:13:31.544Z,997.58
2017-12-08T06:14:12.202Z,997.55
2017-12-08T06:14:52.916Z,997.58
2017-12-08T06:15:33.867Z,997.62
2017-12-08T06:16:14.555Z,997.58
2017-12-08T06:16:55.580Z,997.58
2017-12-08T06:17:36.536Z,997.58
2017-12-08T06:18:17.310Z,997.58
2017-12-08T06:18:58.149Z,997.59
2017-12-08T06:19:39.158Z,997.64
2017-12-08T06:20:19.823Z,997.62
2017-12-08T06:21:00.398Z,997.65
2017-12-08T06:21:41.368Z,997.63
2017-12-08T06:22:22.445Z,997.62
2017-12-08T06:23:03.022Z,997.59
2017-12-08T06:23:43.614Z,997.62
2017-12-08T06:24:24.184Z,997.65
2017-12-08T06:25:04.737Z,997.66
2017-12-08T06:25:45.300Z,997.65
2017-12-08T06:26:25.869Z,997.63
2017-12-08T06:27:06.446Z,997.66
2017-12-08T06:27:47.026Z,997.65
2017-12-08T06:28:27.601Z,997.61
2017-12-08T06:29:08.166Z,997.65
2017-12-08T06:29:48.786Z,997.65
2017-12-08T06:30:29.350Z,997.61
2017-12-08T06:31:09.919Z,997.57
2017-12-08T06:31:50.608Z,997.58
2017-12-08T06:32:31.438Z,997.55
2017-12-08T06:33:12.330Z,997.56
2017-12-08T06:33:53.236Z,997.52
2017-12-08T06:34:33.843Z,997.54
2017-12-08T06:35:14.677Z,997.61
2017-12-08T06:35:55.525Z,997.55
2017-12-08T06:36:36.137Z,997.61
2017-12-08T06:37:16.830Z,997.55
2017-12-08T06:37:57.437Z,997.55
2017-12-08T06:38:38.010Z,997.52
2017-12-08T06:39:18.706Z,997.56
2017-12-08T06:39:59.618Z,997.55
2017-12-08T06:40:40.585Z,997.52
2017-12-08T06:41:21.281Z,997.5
2017-12-08T06:42:02.120Z,997.52
2017-12-08T06:42:42.927Z,997.53
2017-12-08T06:43:23.787Z,997.53
2017-12-08T06:44:04.678Z,997.52
2017-12-08T06:44:45.296Z,997.53
2017-12-08T06:45:25.883Z,997.56
2017-12-08T06:46:06.466Z,997.58
2017-12-08T06:46:47.040Z,997.57
2017-12-08T06:47:27.640Z,997.61
2017-12-08T06:48:08.217Z,997.54
2017-12-08T06:48:48.799Z,997.64
2017-12-08T06:49:29.375Z,997.61
2017-12-08T06:50:10.055Z,997.62
2017-12-08T06:50:50.757Z,997.64
2017-12-08T06:51:31.517Z,997.65
2017-12-08T06:52:12.124Z,997.67
2017-12-08T06:52:52.686Z,997.62
2017-12-08T06:53:33.557Z,997.65
2017-12-08T06:54:14.266Z,997.65
2017-12-08T06:54:55.092Z,997.67
2017-12-08T06:55:35.825Z,997.71
2017-12-08T06:56:16.398Z,997.75
2017-12-08T06:56:57.227Z,997.76
2017-12-08T06:57:37.907Z,997.79
2017-12-08T06:58:18.659Z,997.8
2017-12-08T06:58:59.554Z,997.77
2017-12-08T06:59:40.275Z,997.77
2017-12-08T07:00:20.839Z,997.77
2017-12-08T07:01:01.417Z,997.76
2017-12-08T07:01:42.162Z,997.78
2017-12-08T07:02:23.076Z,997.81
2017-12-08T07:03:03.812Z,997.82
2017-12-08T07:03:44.392Z,997.78
2017-12-08T07:04:24.954Z,997.79
2017-12-08T07:05:05.607Z,997.82
2017-12-08T07:05:46.522Z,997.83
2017-12-08T07:06:27.513Z,997.82
2017-12-08T07:07:08.082Z,997.84
2017-12-08T07:07:48.729Z,997.85
2017-12-08T07:08:29.538Z,997.85
2017-12-08T07:09:10.292Z,997.85
2017-12-08T07:09:51.194Z,997.85
2017-12-08T07:10:32.021Z,997.86
2017-12-08T07:12:25.210Z,997.88
2017-12-08T07:13:05.993Z,997.88
2017-12-08T07:13:46.820Z,997.86
2017-12-08T07:14:27.645Z,997.88
2017-12-08T07:15:08.478Z,997.88
2017-12-08T07:15:49.245Z,997.87
2017-12-08T07:16:30.194Z,997.89
2017-12-08T07:17:11.020Z,997.9
2017-12-08T07:17:51.680Z,997.93
2017-12-08T07:18:32.460Z,997.92
2017-12-08T07:19:13.329Z,997.93
2017-12-08T07:19:53.978Z,997.98
2017-12-08T07:20:34.564Z,997.97
2017-12-08T07:21:15.153Z,997.99
2017-12-08T07:21:55.793Z,998.01
2017-12-08T07:22:36.842Z,998.03
2017-12-08T07:23:17.666Z,997.98
2017-12-08T07:23:58.612Z,997.99
2017-12-08T07:24:39.397Z,998.02
2017-12-08T07:25:20.134Z,998.02
2017-12-08T07:26:00.888Z,998.07
2017-12-08T07:26:42.509Z,998.05
2017-12-08T07:27:23.421Z,998.03
2017-12-08T07:28:04.209Z,998.04
2017-12-08T07:28:45.264Z,998.07
2017-12-08T07:29:26.328Z,998.1
2017-12-08T07:30:07.112Z,998.04
2017-12-08T07:30:48.136Z,998.07
2017-12-08T07:31:28.971Z,998.02
2017-12-08T07:32:09.826Z,998.04
2017-12-08T07:32:50.704Z,998.06
2017-12-08T07:33:31.349Z,998.01
2017-12-08T07:34:11.929Z,998.05
2017-12-08T07:34:52.612Z,998.04
2017-12-08T07:35:33.170Z,998.1
2017-12-08T07:36:13.767Z,998.04
2017-12-08T07:36:54.417Z,998.07
2017-12-08T07:37:34.982Z,998.07
2017-12-08T07:38:15.551Z,998.09
2017-12-08T07:38:56.124Z,998.05
2017-12-08T07:39:37.021Z,998.07
2017-12-08T07:40:17.788Z,998.04
2017-12-08T07:40:58.747Z,998.05
2017-12-08T07:41:39.419Z,998.06
2017-12-08T07:42:19.941Z,998.09
2017-12-08T07:43:00.531Z,998.06
2017-12-08T07:43:41.104Z,998.06
2017-12-08T07:44:21.692Z,998.15
2017-12-08T07:45:02.291Z,998.11
2017-12-08T07:45:42.859Z,998.08
2017-12-08T07:46:23.433Z,998.07
2017-12-08T07:47:03.999Z,998.06
2017-12-08T07:47:44.570Z,998.08
2017-12-08T07:48:25.135Z,998.07
2017-12-08T07:49:05.850Z,998.08
2017-12-08T07:49:50.516Z,998.11
2017-12-08T07:50:31.165Z,998.03
2017-12-08T07:51:11.784Z,998.05
2017-12-08T07:51:52.530Z,998.01
2017-12-08T07:52:33.194Z,998.07
2017-12-08T07:53:13.768Z,998.02
2017-12-08T07:53:54.380Z,998.05
2017-12-08T07:54:34.963Z,998.07
2017-12-08T07:55:15.526Z,998.09
2017-12-08T07:55:56.120Z,998.08
2017-12-08T07:56:36.694Z,998.06
2017-12-08T07:57:17.285Z,998.04
2017-12-08T07:57:58.708Z,998.05
2017-12-08T07:58:39.280Z,998.08
2017-12-08T07:59:19.846Z,998.1
2017-12-08T08:00:00.436Z,998.07
2017-12-08T08:00:41.018Z,998.09
2017-12-08T08:01:21.607Z,998.07
2017-12-08T08:02:02.278Z,998.08
2017-12-08T08:02:42.836Z,998.11
2017-12-08T08:03:23.412Z,998.12
2017-12-08T08:04:03.966Z,998.12
2017-12-08T08:04:44.573Z,998.15
2017-12-08T08:05:25.146Z,998.15
2017-12-08T08:06:05.721Z,998.14
2017-12-08T08:06:46.296Z,998.15
2017-12-08T08:07:26.876Z,998.14
2017-12-08T08:08:07.464Z,998.15
2017-12-08T08:08:48.092Z,998.15
2017-12-08T08:09:28.686Z,998.15
2017-12-08T08:10:09.281Z,998.17
2017-12-08T08:10:49.928Z,998.17
2017-12-08T08:11:30.489Z,998.21
2017-12-08T08:12:11.063Z,998.14
2017-12-08T08:12:51.669Z,998.16
2017-12-08T08:13:32.259Z,998.15
2017-12-08T08:14:12.836Z,998.19
2017-12-08T08:14:53.416Z,998.19
2017-12-08T08:15:33.988Z,998.17
2017-12-08T08:16:14.563Z,998.16
2017-12-08T08:16:55.142Z,998.18
2017-12-08T08:17:35.723Z,998.18
2017-12-08T08:18:16.307Z,998.18
2017-12-08T08:18:56.858Z,998.15
2017-12-08T08:19:37.436Z,998.17
2017-12-08T08:20:18.010Z,998.19
2017-12-08T08:20:58.579Z,998.17
2017-12-08T08:21:39.159Z,998.18
2017-12-08T08:22:19.748Z,998.18
2017-12-08T08:23:00.351Z,998.2
2017-12-08T08:23:40.923Z,998.18
2017-12-08T08:24:21.494Z,998.17
2017-12-08T08:25:02.065Z,998.18
2017-12-08T08:25:42.639Z,998.18
2017-12-08T08:26:23.227Z,998.21
2017-12-08T08:27:03.798Z,998.23
2017-12-08T08:27:44.384Z,998.24
2017-12-08T08:28:24.959Z,998.27
2017-12-08T08:29:05.535Z,998.24
2017-12-08T08:29:46.108Z,998.31